Time,TemperatureF,DewpointF,PressureIn,WindDirection,WindDirectionDegrees,WindSpeedMPH,WindSpeedGustMPH,Humidity,HourlyPrecipIn,Conditions,Clouds,dailyrainin,SoftwareType,DateUTC
2013-04-05 00:03:00,42.0,23.0,30.03,ESE,116,1.0,4.0,46,0.00,,,0.00,,2013-04-05 04:03:00,
2013-04-05 00:13:00,42.0,23.0,30.03,ESE,116,1.0,4.0,46,0.00,,,0.00,,2013-04-05 04:13:00,
2013-04-05 00:23:00,42.0,23.0,30.02,ESE,121,2.0,5.0,47,0.00,,,0.00,,2013-04-05 04:23:00,
2013-04-05 00:33:00,42.0,24.0,30.02,West,269,2.0,7.0,48,0.00,,,0.00,,2013-04-05 04:33:00,
2013-04-05 00:42:00,42.0,24.0,30.02,West,269,2.0,7.0,48,0.00,,,0.00,,2013-04-05 04:42:00,
2013-04-05 00:52:00,41.0,24.0,30.02,SE,145,1.0,4.0,50,0.00,,,0.00,,2013-04-05 04:52:00,
2013-04-05 01:02:00,41.0,24.0,30.02,NW,317,1.0,7.0,50,0.00,,,0.00,,2013-04-05 05:02:00,
2013-04-05 01:13:00,41.0,24.0,30.02,NW,317,1.0,7.0,50,0.00,,,0.00,,2013-04-05 05:13:00,
2013-04-05 01:22:00,41.0,25.0,30.02,ESE,114,0.0,3.0,53,0.00,,,0.00,,2013-04-05 05:22:00,
2013-04-05 01:32:00,41.0,26.0,30.01,ESE,115,1.0,4.0,54,0.00,,,0.00,,2013-04-05 05:32:00,
2013-04-05 01:42:00,41.0,26.0,30.01,ESE,115,1.0,4.0,54,0.00,,,0.00,,2013-04-05 05:42:00,
2013-04-05 01:53:00,40.0,25.0,30.00,NNW,340,1.0,4.0,55,0.00,,,0.00,,2013-04-05 05:53:00,
2013-04-05 02:02:00,40.0,26.0,30.00,ESE,114,1.0,3.0,57,0.00,,,0.00,,2013-04-05 06:02:00,
2013-04-05 02:12:00,40.0,26.0,30.00,ESE,114,1.0,3.0,57,0.00,,,0.00,,2013-04-05 06:12:00,
2013-04-05 02:22:00,39.0,26.0,29.99,ESE,103,0.0,3.0,59,0.00,,,0.00,,2013-04-05 06:22:00,
2013-04-05 02:32:00,39.0,26.0,29.99,SE,133,1.0,3.0,60,0.00,,,0.00,,2013-04-05 06:32:00,
2013-04-05 02:42:00,39.0,26.0,29.99,SE,133,1.0,3.0,60,0.00,,,0.00,,2013-04-05 06:42:00,
2013-04-05 02:52:00,39.0,27.0,29.98,SSW,212,2.0,5.0,63,0.00,,,0.00,,2013-04-05 06:52:00,
2013-04-05 03:03:00,39.0,27.0,29.98,ESE,111,1.0,3.0,63,0.00,,,0.00,,2013-04-05 07:03:00,
2013-04-05 03:12:00,39.0,27.0,29.98,ESE,111,1.0,3.0,63,0.00,,,0.00,,2013-04-05 07:12:00,
2013-04-05 03:22:00,38.0,28.0,29.97,ESE,106,1.0,3.0,66,0.00,,,0.00,,2013-04-05 07:22:00,
2013-04-05 03:32:00,38.0,28.0,29.98,WNW,285,1.0,3.0,68,0.00,,,0.00,,2013-04-05 07:32:00,
2013-04-05 03:42:00,38.0,28.0,29.98,WNW,285,1.0,3.0,68,0.00,,,0.00,,2013-04-05 07:42:00,
2013-04-05 03:53:00,37.0,28.0,29.97,West,271,0.0,2.0,70,0.00,,,0.00,,2013-04-05 07:53:00,
2013-04-05 04:03:00,37.0,28.0,29.96,ESE,105,0.0,3.0,71,0.00,,,0.00,,2013-04-05 08:03:00,
2013-04-05 04:13:00,37.0,28.0,29.96,ESE,105,0.0,3.0,71,0.00,,,0.00,,2013-04-05 08:13:00,
2013-04-05 04:22:00,37.0,29.0,29.95,ESE,111,2.0,3.0,73,0.00,,,0.00,,2013-04-05 08:22:00,
2013-04-05 04:32:00,37.0,29.0,29.94,SSE,156,0.0,5.0,73,0.00,,,0.00,,2013-04-05 08:32:00,
2013-04-05 04:43:00,37.0,29.0,29.94,SSE,156,0.0,5.0,73,0.00,,,0.00,,2013-04-05 08:43:00,
2013-04-05 04:52:00,37.0,29.0,29.94,SW,228,0.0,4.0,74,0.00,,,0.00,,2013-04-05 08:52:00,
2013-04-05 05:02:00,37.0,29.0,29.95,SE,124,1.0,4.0,74,0.00,,,0.00,,2013-04-05 09:02:00,
2013-04-05 05:12:00,37.0,29.0,29.95,SE,124,1.0,4.0,74,0.00,,,0.00,,2013-04-05 09:12:00,
2013-04-05 05:22:00,37.0,29.0,29.95,ESE,115,1.0,3.0,74,0.00,,,0.00,,2013-04-05 09:22:00,
2013-04-05 05:33:00,37.0,29.0,29.94,ESE,105,1.0,3.0,73,0.00,,,0.00,,2013-04-05 09:33:00,
2013-04-05 05:43:00,37.0,29.0,29.94,ESE,105,1.0,3.0,73,0.00,,,0.00,,2013-04-05 09:43:00,
2013-04-05 05:52:00,37.0,29.0,29.94,West,276,0.0,1.0,73,0.00,,,0.00,,2013-04-05 09:52:00,
2013-04-05 06:03:00,36.0,29.0,29.93,West,276,0.0,1.0,74,0.00,,,0.00,,2013-04-05 10:03:00,
2013-04-05 06:13:00,36.0,29.0,29.93,West,276,0.0,1.0,74,0.00,,,0.00,,2013-04-05 10:13:00,
2013-04-05 06:23:00,36.0,29.0,29.93,West,276,0.0,1.0,74,0.00,,,0.00,,2013-04-05 10:23:00,
2013-04-05 06:33:00,36.0,29.0,29.93,West,276,0.0,0.0,74,0.00,,,0.00,,2013-04-05 10:33:00,
2013-04-05 06:43:00,36.0,29.0,29.93,West,276,0.0,0.0,74,0.00,,,0.00,,2013-04-05 10:43:00,
2013-04-05 06:53:00,36.0,29.0,29.92,West,276,0.0,1.0,74,0.00,,,0.00,,2013-04-05 10:53:00,
2013-04-05 07:03:00,36.0,28.0,29.92,ESE,105,0.0,2.0,73,0.00,,,0.00,,2013-04-05 11:03:00,
2013-04-05 07:13:00,36.0,28.0,29.92,ESE,105,0.0,2.0,73,0.00,,,0.00,,2013-04-05 11:13:00,
2013-04-05 07:22:00,37.0,28.0,29.93,WSW,252,1.0,2.0,71,0.00,,,0.00,,2013-04-05 11:22:00,
2013-04-05 07:33:00,37.0,28.0,29.93,ESE,113,0.0,2.0,70,0.00,,,0.00,,2013-04-05 11:33:00,
2013-04-05 07:42:00,37.0,28.0,29.93,ESE,113,0.0,2.0,70,0.00,,,0.00,,2013-04-05 11:42:00,
2013-04-05 07:52:00,38.0,29.0,29.92,SW,231,1.0,3.0,69,0.00,,,0.00,,2013-04-05 11:52:00,
2013-04-05 08:02:00,38.0,28.0,29.92,SSE,165,0.0,2.0,68,0.00,,,0.00,,2013-04-05 12:02:00,
2013-04-05 08:12:00,38.0,28.0,29.92,SSE,165,0.0,2.0,68,0.00,,,0.00,,2013-04-05 12:12:00,
2013-04-05 08:22:00,39.0,29.0,29.92,South,177,0.0,1.0,67,0.00,,,0.00,,2013-04-05 12:22:00,
2013-04-05 08:32:00,39.0,29.0,29.91,SE,141,0.0,3.0,66,0.00,,,0.00,,2013-04-05 12:32:00,
2013-04-05 08:42:00,39.0,29.0,29.91,SE,141,0.0,3.0,66,0.00,,,0.00,,2013-04-05 12:42:00,
2013-04-05 08:52:00,40.0,29.0,29.91,SE,137,1.0,3.0,64,0.00,,,0.00,,2013-04-05 12:52:00,
2013-04-05 09:02:00,41.0,28.0,29.90,ESE,105,1.0,3.0,60,0.00,,,0.00,,2013-04-05 13:02:00,
2013-04-05 09:12:00,41.0,28.0,29.90,ESE,105,1.0,3.0,60,0.00,,,0.00,,2013-04-05 13:12:00,
2013-04-05 09:23:00,41.0,28.0,29.89,SSW,194,1.0,6.0,59,0.00,,,0.00,,2013-04-05 13:23:00,
2013-04-05 09:32:00,42.0,29.0,29.88,NW,315,2.0,5.0,59,0.00,,,0.00,,2013-04-05 13:32:00,
2013-04-05 09:42:00,42.0,29.0,29.88,NW,315,2.0,5.0,59,0.00,,,0.00,,2013-04-05 13:42:00,
2013-04-05 09:52:00,43.0,28.0,29.88,SE,136,3.0,5.0,54,0.00,,,0.00,,2013-04-05 13:52:00,
2013-04-05 10:03:00,45.0,27.0,29.87,WSW,252,2.0,7.0,48,0.00,,,0.00,,2013-04-05 14:03:00,
2013-04-05 10:12:00,45.0,27.0,29.87,WSW,252,2.0,7.0,48,0.00,,,0.00,,2013-04-05 14:12:00,
2013-04-05 10:23:00,47.0,27.0,29.87,WNW,298,4.0,10.0,46,0.00,,,0.00,,2013-04-05 14:23:00,
2013-04-05 10:37:00,48.0,27.0,29.86,SSE,156,2.0,5.0,43,0.00,,,0.00,,2013-04-05 14:37:00,
2013-04-05 10:43:00,48.0,27.0,29.86,SSE,156,2.0,5.0,43,0.00,,,0.00,,2013-04-05 14:43:00,
2013-04-05 10:52:00,49.0,27.0,29.85,ESE,111,1.0,5.0,43,0.00,,,0.00,,2013-04-05 14:52:00,
2013-04-05 11:02:00,49.0,25.0,29.85,ESE,115,2.0,6.0,39,0.00,,,0.00,,2013-04-05 15:02:00,
2013-04-05 11:13:00,49.0,25.0,29.85,ESE,115,2.0,6.0,39,0.00,,,0.00,,2013-04-05 15:13:00,
2013-04-05 11:23:00,49.0,26.0,29.84,NW,322,3.0,8.0,41,0.00,,,0.00,,2013-04-05 15:23:00,
2013-04-05 11:33:00,52.0,28.0,29.83,SW,229,0.0,6.0,39,0.00,,,0.00,,2013-04-05 15:33:00,
2013-04-05 11:43:00,52.0,28.0,29.83,SW,229,0.0,6.0,39,0.00,,,0.00,,2013-04-05 15:43:00,
2013-04-05 11:53:00,53.0,25.0,29.82,SE,125,3.0,6.0,34,0.00,,,0.00,,2013-04-05 15:53:00,
2013-04-05 12:03:00,53.0,26.0,29.82,NW,323,1.0,6.0,35,0.00,,,0.00,,2013-04-05 16:03:00,
2013-04-05 12:14:00,53.0,26.0,29.82,NW,323,1.0,6.0,35,0.00,,,0.00,,2013-04-05 16:14:00,
2013-04-05 12:23:00,55.0,27.0,29.81,SE,142,1.0,2.0,34,0.00,,,0.00,,2013-04-05 16:23:00,
2013-04-05 12:33:00,56.0,27.0,29.80,NW,314,1.0,6.0,32,0.00,,,0.00,,2013-04-05 16:33:00,
2013-04-05 12:42:00,56.0,27.0,29.80,NW,314,1.0,6.0,32,0.00,,,0.00,,2013-04-05 16:42:00,
2013-04-05 12:53:00,57.0,28.0,29.78,ESE,111,2.0,4.0,33,0.00,,,0.00,,2013-04-05 16:53:00,
2013-04-05 13:03:00,58.0,26.0,29.77,SE,136,1.0,4.0,29,0.00,,,0.00,,2013-04-05 17:03:00,
2013-04-05 13:13:00,58.0,26.0,29.77,SE,136,1.0,4.0,29,0.00,,,0.00,,2013-04-05 17:13:00,
2013-04-05 13:23:00,57.0,20.0,29.75,ESE,106,2.0,10.0,23,0.00,,,0.00,,2013-04-05 17:23:00,
2013-04-05 13:33:00,57.0,21.0,29.75,ESE,113,3.0,6.0,24,0.00,,,0.00,,2013-04-05 17:33:00,
2013-04-05 13:45:00,57.0,21.0,29.75,ESE,113,3.0,6.0,24,0.00,,,0.00,,2013-04-05 17:45:00,
2013-04-05 13:53:00,58.0,22.0,29.73,West,267,1.0,8.0,25,0.00,,,0.00,,2013-04-05 17:53:00,
2013-04-05 14:02:00,59.0,23.0,29.71,NW,309,2.0,8.0,25,0.00,,,0.00,,2013-04-05 18:02:00,
2013-04-05 14:13:00,59.0,23.0,29.71,NW,309,2.0,8.0,25,0.00,,,0.00,,2013-04-05 18:13:00,
2013-04-05 14:23:00,60.0,21.0,29.71,NNW,335,1.0,5.0,22,0.00,,,0.00,,2013-04-05 18:23:00,
2013-04-05 14:33:00,61.0,18.0,29.70,ESE,119,3.0,8.0,19,0.00,,,0.00,,2013-04-05 18:33:00,
2013-04-05 14:43:00,61.0,18.0,29.70,ESE,119,3.0,8.0,19,0.00,,,0.00,,2013-04-05 18:43:00,
2013-04-05 14:52:00,61.0,17.0,29.69,WNW,290,2.0,5.0,18,0.00,,,0.00,,2013-04-05 18:52:00,
2013-04-05 15:00:00,62.0,22.0,29.66,WNW,302,3.0,9.0,21,0.00,,,0.00,,2013-04-05 19:00:00,
2013-04-05 15:02:00,62.0,20.0,29.67,NNW,347,2.0,9.0,20,0.00,,,0.00,,2013-04-05 19:02:00,
2013-04-05 15:13:00,62.0,20.0,29.67,NNW,347,2.0,9.0,20,0.00,,,0.00,,2013-04-05 19:13:00,
2013-04-05 15:23:00,62.0,22.0,29.66,WNW,302,3.0,9.0,21,0.00,,,0.00,,2013-04-05 19:23:00,
2013-04-05 15:33:00,62.0,22.0,29.66,WNW,302,3.0,9.0,21,0.00,,,0.00,,2013-04-05 19:33:00,
2013-04-05 15:42:00,62.0,22.0,29.66,WNW,302,3.0,9.0,21,0.00,,,0.00,,2013-04-05 19:42:00,
2013-04-05 15:52:00,62.0,22.0,29.66,WNW,302,3.0,9.0,21,0.00,,,0.00,,2013-04-05 19:52:00,
2013-04-05 16:53:00,60.0,24.0,29.66,NW,326,4.0,10.0,25,0.00,,,0.00,,2013-04-05 20:53:00,
2013-04-05 17:03:00,59.0,23.0,29.66,WNW,300,3.0,10.0,25,0.00,,,0.00,,2013-04-05 21:03:00,
2013-04-05 17:13:00,59.0,23.0,29.66,WNW,300,3.0,10.0,25,0.00,,,0.00,,2013-04-05 21:13:00,
2013-04-05 17:24:00,59.0,24.0,29.67,WNW,282,5.0,10.0,26,0.00,,,0.00,,2013-04-05 21:24:00,
2013-04-05 17:33:00,58.0,25.0,29.67,NW,313,4.0,13.0,28,0.00,,,0.00,,2013-04-05 21:33:00,
2013-04-05 17:43:00,58.0,25.0,29.67,NW,313,4.0,13.0,28,0.00,,,0.00,,2013-04-05 21:43:00,
2013-04-05 17:55:00,57.0,23.0,29.67,WNW,301,4.0,11.0,27,0.00,,,0.00,,2013-04-05 21:55:00,
2013-04-05 18:03:00,56.0,23.0,29.68,NNW,329,4.0,9.0,28,0.00,,,0.00,,2013-04-05 22:03:00,
2013-04-05 18:13:00,56.0,23.0,29.68,NNW,329,4.0,9.0,28,0.00,,,0.00,,2013-04-05 22:13:00,
2013-04-05 18:23:00,56.0,22.0,29.69,NW,317,2.0,7.0,26,0.00,,,0.00,,2013-04-05 22:23:00,
2013-04-05 18:33:00,54.0,21.0,29.70,NW,317,2.0,6.0,27,0.00,,,0.00,,2013-04-05 22:33:00,
2013-04-05 18:43:00,54.0,21.0,29.70,NW,317,2.0,6.0,27,0.00,,,0.00,,2013-04-05 22:43:00,
2013-04-05 18:53:00,54.0,20.0,29.70,WNW,301,4.0,9.0,26,0.00,,,0.00,,2013-04-05 22:53:00,
2013-04-05 19:03:00,53.0,20.0,29.71,WNW,295,2.0,7.0,27,0.00,,,0.00,,2013-04-05 23:03:00,
2013-04-05 19:13:00,53.0,20.0,29.71,WNW,295,2.0,7.0,27,0.00,,,0.00,,2013-04-05 23:13:00,
2013-04-05 19:22:00,52.0,24.0,29.72,North,1,4.0,9.0,33,0.00,,,0.00,,2013-04-05 23:22:00,
2013-04-05 19:33:00,50.0,25.0,29.75,North,350,4.0,8.0,38,0.00,,,0.00,,2013-04-05 23:33:00,
2013-04-05 19:42:00,50.0,25.0,29.75,North,350,4.0,8.0,38,0.00,,,0.00,,2013-04-05 23:42:00,
2013-04-05 19:53:00,49.0,25.0,29.75,NW,326,4.0,8.0,39,0.00,,,0.00,,2013-04-05 23:53:00,
2013-04-05 20:02:00,48.0,26.0,29.77,North,9,3.0,10.0,42,0.00,,,0.00,,2013-04-06 00:02:00,
2013-04-05 20:13:00,48.0,26.0,29.77,North,9,3.0,10.0,42,0.00,,,0.00,,2013-04-06 00:13:00,
2013-04-05 20:23:00,47.0,26.0,29.77,WNW,287,3.0,7.0,43,0.00,,,0.00,,2013-04-06 00:23:00,
2013-04-05 20:33:00,46.0,24.0,29.79,NNW,334,4.0,7.0,42,0.00,,,0.00,,2013-04-06 00:33:00,
2013-04-05 20:42:00,46.0,24.0,29.79,NNW,334,4.0,7.0,42,0.00,,,0.00,,2013-04-06 00:42:00,
2013-04-05 20:52:00,46.0,25.0,29.79,NNW,345,3.0,13.0,43,0.00,,,0.00,,2013-04-06 00:52:00,
2013-04-05 21:02:00,44.0,25.0,29.81,WNW,284,3.0,10.0,47,0.00,,,0.00,,2013-04-06 01:02:00,
2013-04-05 21:13:00,44.0,25.0,29.81,WNW,284,3.0,10.0,47,0.00,,,0.00,,2013-04-06 01:13:00,
2013-04-05 21:22:00,44.0,27.0,29.83,NW,318,4.0,9.0,50,0.00,,,0.00,,2013-04-06 01:22:00,
2013-04-05 21:33:00,42.0,27.0,29.84,NW,309,4.0,9.0,54,0.00,,,0.00,,2013-04-06 01:33:00,
2013-04-05 21:43:00,42.0,27.0,29.84,NW,309,4.0,9.0,54,0.00,,,0.00,,2013-04-06 01:43:00,
2013-04-05 21:52:00,42.0,27.0,29.85,WNW,290,1.0,7.0,55,0.00,,,0.00,,2013-04-06 01:52:00,
2013-04-05 22:02:00,41.0,26.0,29.85,WNW,299,3.0,9.0,55,0.00,,,0.00,,2013-04-06 02:02:00,
2013-04-05 22:12:00,41.0,26.0,29.85,WNW,299,3.0,9.0,55,0.00,,,0.00,,2013-04-06 02:12:00,
2013-04-05 22:23:00,41.0,26.0,29.86,NNW,333,4.0,7.0,55,0.00,,,0.00,,2013-04-06 02:23:00,
2013-04-05 22:32:00,40.0,26.0,29.86,WSW,256,4.0,12.0,56,0.00,,,0.00,,2013-04-06 02:32:00,
2013-04-05 22:42:00,40.0,26.0,29.86,WSW,256,4.0,12.0,56,0.00,,,0.00,,2013-04-06 02:42:00,
2013-04-05 22:53:00,39.0,24.0,29.86,WNW,288,3.0,10.0,54,0.00,,,0.00,,2013-04-06 02:53:00,
2013-04-05 23:03:00,39.0,24.0,29.86,WNW,290,4.0,9.0,54,0.00,,,0.00,,2013-04-06 03:03:00,
2013-04-05 23:13:00,39.0,24.0,29.86,WNW,290,4.0,9.0,54,0.00,,,0.00,,2013-04-06 03:13:00,
2013-04-05 23:23:00,38.0,24.0,29.87,WNW,297,4.0,7.0,56,0.00,,,0.00,,2013-04-06 03:23:00,
2013-04-05 23:34:00,38.0,24.0,29.87,NW,312,1.0,6.0,57,0.00,,,0.00,,2013-04-06 03:34:00,
2013-04-05 23:43:00,38.0,24.0,29.87,NW,312,1.0,6.0,57,0.00,,,0.00,,2013-04-06 03:43:00,
2013-04-05 23:55:00,37.0,24.0,29.88,SSW,194,4.0,8.0,59,0.00,,,0.00,,2013-04-06 03:55:00,